Time;durP1;ratioP1;P1;durP2;ratioP2;P2;SDS_P1;SDS_P2;PMS_P1;PMS_P2;Temp;Humidity;BMP_temperature;BMP_pressure;BME280_temperature;BME280_humidity;BME280_pressure;Samples;Min_cycle;Max_cycle;Signal;HPM_P1;HPM_P2
2021/10/19 00:00:05;;;;;;;18.17;12.50;;;9.10;99.90;;;8.71;90.81;98894.31;5062869;28;20641;-81
2021/10/19 00:02:40;;;;;;;16.20;12.17;;;9.00;99.90;;;8.67;91.16;98903.16;5048586;28;20710;-81
2021/10/19 00:05:10;;;;;;;18.47;11.27;;;9.00;99.90;;;8.66;90.19;98905.84;5040801;28;20645;-81
2021/10/19 00:07:39;;;;;;;22.53;12.87;;;9.00;99.90;;;8.63;90.98;98918.97;5048524;28;20663;-81
2021/10/19 00:10:11;;;;;;;15.70;11.57;;;9.00;99.90;;;8.57;89.75;98914.94;5057763;28;20640;-81
2021/10/19 00:12:41;;;;;;;16.20;12.17;;;9.00;99.90;;;8.53;90.91;98922.94;5055502;28;20632;-81
2021/10/19 00:15:14;;;;;;;18.00;12.03;;;8.90;99.90;;;8.51;89.52;98922.19;5055045;28;20671;-81
2021/10/19 00:17:45;;;;;;;21.10;12.33;;;8.90;99.90;;;8.46;90.26;98916.34;5052571;28;20649;-81
2021/10/19 00:20:17;;;;;;;20.67;11.80;;;8.80;99.90;;;8.42;89.33;98916.56;5057053;28;20631;-81
2021/10/19 00:22:46;;;;;;;16.57;12.13;;;8.80;99.90;;;8.42;90.04;98908.75;5055172;28;20644;-81
2021/10/19 00:25:17;;;;;;;19.23;11.93;;;8.80;99.90;;;8.40;90.45;98908.00;5060852;28;20624;-81
2021/10/19 00:27:47;;;;;;;19.47;12.53;;;8.70;99.90;;;8.38;90.66;98905.47;5035855;28;20882;-80
2021/10/19 00:30:17;;;;;;;19.37;12.60;;;8.70;99.90;;;8.42;91.55;98917.41;5057808;28;20637;-81
2021/10/19 00:32:46;;;;;;;17.03;12.00;;;8.70;99.90;;;8.39;91.29;98914.09;5055591;28;20621;-81
2021/10/19 00:35:14;;;;;;;19.00;12.10;;;8.70;99.90;;;8.33;90.52;98902.25;5058171;28;20625;-81
2021/10/19 00:37:43;;;;;;;24.53;12.87;;;8.70;99.90;;;8.26;90.78;98903.44;5054508;28;20644;-81
2021/10/19 00:40:13;;;;;;;19.47;13.03;;;8.70;99.90;;;8.27;90.30;98915.53;5050377;28;21229;-81
2021/10/19 00:42:42;;;;;;;17.13;11.90;;;8.60;99.90;;;8.20;90.33;98914.09;5034328;28;20657;-81
2021/10/19 00:45:11;;;;;;;19.50;12.90;;;8.50;99.90;;;8.22;90.67;98914.88;5053595;28;20667;-81
2021/10/19 00:47:47;;;;;;;17.27;12.90;;;8.50;99.90;;;8.24;92.00;98920.84;5050870;28;20649;-81
2021/10/19 00:50:16;;;;;;;20.27;13.03;;;8.50;99.90;;;8.28;91.09;98909.41;5038661;28;20643;-81
2021/10/19 00:52:45;;;;;;;17.73;11.90;;;8.50;99.90;;;8.33;91.46;98898.78;5052749;28;20654;-81
2021/10/19 00:55:14;;;;;;;16.87;11.47;;;8.60;99.90;;;8.37;91.60;98890.78;5052371;28;20658;-81
2021/10/19 00:57:44;;;;;;;19.17;12.70;;;8.70;99.90;;;8.36;91.80;98894.31;5035090;28;20655;-81
2021/10/19 01:00:14;;;;;;;19.27;11.97;;;8.70;99.90;;;8.32;91.40;98887.56;5056435;28;20625;-81
2021/10/19 01:02:44;;;;;;;15.77;11.30;;;8.60;99.90;;;8.36;92.85;98894.31;5054815;28;20648;-81
2021/10/19 01:05:14;;;;;;;17.70;12.27;;;8.70;99.90;;;8.33;91.49;98886.66;5054967;28;20628;-80
2021/10/19 01:07:44;;;;;;;16.30;11.53;;;8.60;99.90;;;8.26;91.54;98877.44;5055576;28;20656;-80
2021/10/19 01:10:13;;;;;;;18.47;11.33;;;8.60;99.90;;;8.23;90.29;98874.16;5053974;28;20650;-80
2021/10/19 01:12:42;;;;;;;15.17;11.80;;;8.60;99.90;;;8.22;89.92;98875.91;5051837;28;20647;-80
2021/10/19 01:15:13;;;;;;;20.50;13.83;;;8.50;99.90;;;8.25;90.38;98878.34;5032573;28;21322;-80
2021/10/19 01:17:45;;;;;;;17.47;12.70;;;8.60;99.90;;;8.28;92.35;98878.22;5058304;28;20641;-80
2021/10/19 01:20:24;;;;;;;20.50;13.77;;;8.60;99.90;;;8.28;90.94;98870.41;5055034;28;20640;-80
2021/10/19 01:22:53;;;;;;;18.17;12.97;;;8.60;99.90;;;8.26;91.46;98856.66;5051306;28;20652;-80
2021/10/19 01:25:24;;;;;;;20.20;12.77;;;8.60;99.90;;;8.25;91.32;98861.94;5049399;28;20653;-81
2021/10/19 01:27:55;;;;;;;17.73;11.70;;;8.60;99.90;;;8.25;91.10;98862.75;5045919;28;20686;-81
2021/10/19 01:30:25;;;;;;;18.80;13.03;;;8.60;99.90;;;8.25;90.73;98865.38;5046988;28;20644;-81
2021/10/19 01:32:56;;;;;;;20.37;12.57;;;8.60;99.90;;;8.22;91.03;98878.50;5050816;28;21195;-81
2021/10/19 01:35:37;;;;;;;20.10;14.30;;;8.60;99.90;;;8.26;91.16;98877.44;5040176;28;20636;-81
2021/10/19 01:38:08;;;;;;;19.67;13.03;;;8.60;99.90;;;8.25;91.12;98880.94;5052923;28;20679;-81
2021/10/19 01:40:37;;;;;;;20.53;13.80;;;8.60;99.90;;;8.25;91.37;98880.94;5041906;28;20627;-81
2021/10/19 01:43:10;;;;;;;19.47;13.53;;;8.60;99.90;;;8.26;92.74;98882.66;5036256;28;20656;-81
2021/10/19 01:45:39;;;;;;;21.70;12.87;;;8.60;99.90;;;8.30;92.73;98896.31;5058696;28;20664;-80
2021/10/19 01:48:08;;;;;;;19.77;12.97;;;8.60;99.90;;;8.30;91.27;98892.00;5054097;28;20632;-80
2021/10/19 01:50:38;;;;;;;18.87;12.03;;;8.60;99.90;;;8.30;91.28;98892.00;5042180;28;20648;-80
2021/10/19 01:53:07;;;;;;;20.70;12.93;;;8.60;99.90;;;8.32;91.21;98890.16;5055057;28;20632;-80
2021/10/19 01:55:38;;;;;;;18.87;12.43;;;8.60;99.90;;;8.30;92.70;98889.41;5054647;28;20616;-80
2021/10/19 01:58:07;;;;;;;18.33;12.53;;;8.60;99.90;;;8.28;92.74;98877.38;5052321;28;20620;-80
2021/10/19 02:00:37;;;;;;;19.13;12.60;;;8.60;99.90;;;8.28;92.46;98877.38;5034260;28;21156;-80
2021/10/19 02:03:06;;;;;;;24.17;12.90;;;8.60;99.90;;;8.26;91.07;98874.84;5048989;28;21267;-80
2021/10/19 02:05:37;;;;;;;18.00;12.90;;;8.60;99.90;;;8.28;92.84;98882.56;5050903;28;20789;-80
2021/10/19 02:08:07;;;;;;;17.90;12.20;;;8.60;99.90;;;8.30;92.42;98880.75;5050876;28;20671;-81
2021/10/19 02:10:37;;;;;;;19.03;11.47;;;8.60;99.90;;;8.31;92.05;98883.25;5047489;28;20774;-81
2021/10/19 02:13:08;;;;;;;19.97;13.30;;;8.60;99.90;;;8.32;91.82;98878.94;5042432;28;20641;-81
2021/10/19 02:15:37;;;;;;;20.87;12.33;;;8.70;99.90;;;8.33;92.74;98873.66;5033098;28;20637;-81
2021/10/19 02:18:07;;;;;;;17.77;11.47;;;8.60;99.90;;;8.32;91.92;98861.56;5057034;28;20659;-81
2021/10/19 02:20:39;;;;;;;17.50;12.17;;;8.70;99.90;;;8.30;91.69;98863.41;5056452;28;20628;-81
2021/10/19 02:23:09;;;;;;;17.37;11.80;;;8.60;99.90;;;8.29;91.95;98859.13;5038329;28;20748;-81
2021/10/19 02:25:40;;;;;;;23.10;13.20;;;8.60;99.90;;;8.25;92.14;98848.94;5048071;28;20637;-81
2021/10/19 02:28:09;;;;;;;14.70;10.57;;;8.60;99.90;;;8.23;91.86;98853.38;5046399;28;20635;-81
2021/10/19 02:30:37;;;;;;;19.47;11.20;;;8.60;99.90;;;8.23;91.30;98846.41;5054597;28;20993;-80
2021/10/19 02:33:06;;;;;;;16.50;10.73;;;8.60;99.90;;;8.25;92.38;98856.75;5047813;28;20996;-80
2021/10/19 02:35:35;;;;;;;19.17;12.63;;;8.60;99.90;;;8.29;93.24;98856.53;5035460;28;20648;-81
2021/10/19 02:38:05;;;;;;;20.10;13.10;;;8.60;99.90;;;8.34;92.33;98856.31;5047711;28;20653;-81
2021/10/19 02:40:33;;;;;;;14.70;10.53;;;8.60;99.90;;;8.34;91.73;98851.94;5050417;28;20723;-81
2021/10/19 02:43:02;;;;;;;18.87;12.60;;;8.70;99.90;;;8.37;91.74;98857.00;5053659;28;20691;-81
2021/10/19 02:45:30;;;;;;;17.20;11.57;;;8.70;99.90;;;8.36;92.54;98847.53;5046779;28;20633;-81
2021/10/19 02:47:59;;;;;;;19.27;12.13;;;8.70;99.90;;;8.34;91.58;98843.31;5049916;28;21232;-81
2021/10/19 02:50:28;;;;;;;16.23;11.30;;;8.60;99.90;;;8.36;93.21;98844.06;5049709;28;20647;-81
2021/10/19 02:52:56;;;;;;;17.67;11.87;;;8.70;99.90;;;8.40;93.56;98856.03;5052876;28;21983;-81
2021/10/19 02:55:26;;;;;;;19.27;12.67;;;8.70;99.90;;;8.41;93.58;98863.75;5049436;28;20645;-81
2021/10/19 02:57:55;;;;;;;20.67;13.40;;;8.70;99.90;;;8.43;92.56;98867.09;5056978;28;20647;-81
2021/10/19 03:00:23;;;;;;;21.47;13.33;;;8.70;99.90;;;8.44;93.51;98877.44;5055598;28;20684;-81
2021/10/19 03:02:52;;;;;;;20.93;13.00;;;8.80;99.90;;;8.45;93.50;98858.31;5051638;28;21224;-81
2021/10/19 03:05:21;;;;;;;21.93;12.47;;;8.80;99.90;;;8.46;93.35;98862.63;5054457;28;20644;-81
2021/10/19 03:07:49;;;;;;;16.63;11.23;;;8.80;99.90;;;8.49;93.75;98859.00;5053004;28;21458;-81
2021/10/19 03:10:17;;;;;;;23.00;13.27;;;8.80;99.90;;;8.50;92.32;98855.50;5051413;28;20636;-81
2021/10/19 03:12:47;;;;;;;18.47;12.83;;;8.80;99.90;;;8.51;93.54;98852.00;5051195;28;20637;-81
2021/10/19 03:15:19;;;;;;;18.60;12.20;;;8.80;99.90;;;8.52;93.21;98851.06;5053065;28;20620;-81
2021/10/19 03:17:48;;;;;;;18.33;11.57;;;8.80;99.90;;;8.52;93.71;98848.47;5059157;28;20641;-81
2021/10/19 03:20:16;;;;;;;15.80;11.70;;;8.80;99.90;;;8.53;94.14;98844.97;5059260;28;20636;-81
2021/10/19 03:22:45;;;;;;;20.10;12.70;;;8.80;99.90;;;8.56;92.87;98845.66;5051372;28;20644;-81
2021/10/19 03:25:13;;;;;;;19.10;12.90;;;8.80;99.90;;;8.56;93.64;98855.22;5052843;28;21305;-81
2021/10/19 03:27:46;;;;;;;18.63;12.40;;;8.80;99.90;;;8.59;92.60;98862.88;5037240;28;20644;-81
2021/10/19 03:30:16;;;;;;;20.87;13.03;;;8.90;99.90;;;8.59;92.75;98868.06;5050383;28;20648;-80
2021/10/19 03:32:49;;;;;;;19.63;13.63;;;8.90;99.90;;;8.60;94.16;98854.13;5055794;28;20635;-81
2021/10/19 03:35:18;;;;;;;19.17;13.10;;;8.90;99.90;;;8.62;93.55;98857.53;5049824;28;21172;-81
2021/10/19 03:37:46;;;;;;;17.33;12.30;;;8.90;99.90;;;8.67;93.54;98866.75;5053431;28;20662;-81
2021/10/19 03:40:15;;;;;;;18.23;12.57;;;8.90;99.90;;;8.70;93.81;98865.78;5060663;28;20653;-81
2021/10/19 03:42:47;;;;;;;17.93;13.03;;;9.00;99.90;;;8.74;94.61;98868.16;5045325;28;20631;-81
2021/10/19 03:45:18;;;;;;;17.93;11.97;;;9.00;99.90;;;8.78;93.69;98863.66;5052426;28;20656;-81
2021/10/19 03:47:47;;;;;;;19.63;11.77;;;9.10;99.90;;;8.80;92.90;98869.63;5056231;28;20632;-81
2021/10/19 03:50:17;;;;;;;19.83;12.20;;;9.10;99.90;;;8.83;94.08;98866.88;5056612;28;20632;-81
2021/10/19 03:52:45;;;;;;;20.40;13.17;;;9.10;99.90;;;8.87;93.40;98860.59;5040873;28;20633;-84
2021/10/19 03:55:14;;;;;;;18.83;12.10;;;9.10;99.90;;;8.87;92.86;98871.00;5059047;28;20999;-84
2021/10/19 03:57:42;;;;;;;18.20;11.97;;;9.10;99.90;;;8.86;93.06;98866.75;5037013;28;20645;-84
2021/10/19 04:00:12;;;;;;;15.57;10.80;;;9.20;99.90;;;8.88;93.68;98870.09;5058547;28;20647;-81
2021/10/19 04:02:45;;;;;;;17.03;11.87;;;9.10;99.90;;;8.92;93.45;98873.31;5059150;28;20631;-81
2021/10/19 04:05:14;;;;;;;21.40;12.13;;;9.20;99.90;;;8.92;93.05;98871.63;5055985;28;20657;-81
2021/10/19 04:07:46;;;;;;;18.33;12.23;;;9.20;99.90;;;8.95;93.33;98873.16;5048673;28;21122;-81
2021/10/19 04:10:19;;;;;;;21.53;12.37;;;9.20;99.90;;;8.97;92.75;98875.69;5060578;28;20667;-81
2021/10/19 04:12:47;;;;;;;17.27;12.27;;;9.30;99.90;;;9.00;93.33;98876.34;5051753;28;21222;-81
2021/10/19 04:15:16;;;;;;;18.57;11.47;;;9.30;99.90;;;9.02;94.09;98884.94;5054191;28;20679;-81
2021/10/19 04:17:46;;;;;;;15.73;12.13;;;9.30;99.90;;;9.04;93.38;98877.91;5038889;28;21292;-81
2021/10/19 04:20:14;;;;;;;16.47;12.20;;;9.30;99.90;;;9.05;93.99;98892.59;5038736;28;20645;-81
2021/10/19 04:22:43;;;;;;;17.73;11.67;;;9.30;99.90;;;9.06;93.80;98891.66;5051979;28;20628;-81
2021/10/19 04:25:11;;;;;;;19.50;12.30;;;9.40;99.90;;;9.09;93.52;98888.06;5054642;28;21043;-81
2021/10/19 04:27:40;;;;;;;18.87;13.43;;;9.40;99.90;;;9.11;94.31;98884.50;5057140;28;20639;-81
2021/10/19 04:30:10;;;;;;;18.47;12.50;;;9.40;99.90;;;9.14;93.73;98892.16;5055704;28;20636;-81
2021/10/19 04:32:39;;;;;;;17.77;13.13;;;9.40;99.90;;;9.15;93.78;98874.75;5062867;28;20632;-81
2021/10/19 04:35:09;;;;;;;17.63;12.47;;;9.50;99.90;;;9.18;93.80;98878.03;5051696;28;21305;-81
2021/10/19 04:37:38;;;;;;;18.23;12.10;;;9.50;99.90;;;9.19;94.40;98873.69;5056315;28;20659;-81
2021/10/19 04:40:08;;;;;;;18.03;13.20;;;9.50;99.90;;;9.21;93.08;98869.25;5051201;28;20649;-81
2021/10/19 04:42:39;;;;;;;17.60;12.40;;;9.50;99.90;;;9.22;93.33;98874.38;5039205;28;20632;-81
2021/10/19 04:45:09;;;;;;;18.10;12.53;;;9.50;99.90;;;9.23;93.66;98873.47;5057387;28;21227;-81
2021/10/19 04:47:38;;;;;;;16.93;12.50;;;9.50;99.90;;;9.26;93.47;98865.50;5042446;28;20636;-81
2021/10/19 04:50:09;;;;;;;19.30;13.57;;;9.60;99.90;;;9.27;93.81;98858.53;5055468;28;20648;-81
2021/10/19 04:52:40;;;;;;;18.53;11.83;;;9.60;99.90;;;9.28;93.90;98850.66;5053800;28;20644;-81
2021/10/19 04:55:09;;;;;;;16.53;11.60;;;9.60;99.90;;;9.30;93.52;98859.22;5057845;28;20639;-81
2021/10/19 04:57:38;;;;;;;16.73;12.30;;;9.60;99.90;;;9.32;93.94;98856.53;5055907;28;20628;-81
2021/10/19 05:00:08;;;;;;;16.53;12.47;;;9.60;99.90;;;9.35;94.25;98846.81;5059165;28;20646;-81
2021/10/19 05:02:44;;;;;;;18.53;13.83;;;9.60;99.90;;;9.36;93.48;98861.50;5053916;28;20743;-81
2021/10/19 05:05:15;;;;;;;17.20;12.33;;;9.70;99.90;;;9.37;93.90;98865.78;5056174;28;20647;-81
2021/10/19 05:07:44;;;;;;;18.90;13.67;;;9.70;99.90;;;9.38;93.53;98867.47;5052948;28;20660;-81
2021/10/19 05:10:13;;;;;;;20.63;12.70;;;9.70;99.90;;;9.38;93.73;98864.84;5051439;28;20639;-81
2021/10/19 05:12:42;;;;;;;19.77;13.60;;;9.70;99.90;;;9.41;93.76;98849.06;5050125;28;20636;-81
2021/10/19 05:15:11;;;;;;;20.73;13.40;;;9.70;99.90;;;9.43;93.74;98855.06;5052184;28;20640;-81
2021/10/19 05:17:40;;;;;;;19.20;13.27;;;9.70;99.90;;;9.42;93.65;98853.38;5052847;28;20663;-82
2021/10/19 05:20:10;;;;;;;24.30;13.70;;;9.80;99.90;;;9.42;93.99;98851.59;5055308;28;20628;-82
2021/10/19 05:22:40;;;;;;;20.20;14.90;;;9.70;99.90;;;9.45;93.65;98863.63;5035146;28;20628;-82
2021/10/19 05:25:10;;;;;;;22.03;14.77;;;9.70;99.90;;;9.45;94.13;98858.44;5040295;28;20733;-82
2021/10/19 05:27:38;;;;;;;22.10;14.33;;;9.70;99.90;;;9.46;93.94;98852.31;5053638;28;20698;-82
2021/10/19 05:30:09;;;;;;;21.07;15.37;;;9.80;99.90;;;9.48;93.75;98860.88;5049990;28;20637;-82
2021/10/19 05:32:38;;;;;;;19.23;14.33;;;9.80;99.90;;;9.49;93.73;98859.97;5051991;28;20640;-83
2021/10/19 05:35:08;;;;;;;22.20;14.10;;;9.80;99.90;;;9.51;94.10;98858.09;5042684;28;21228;-82
2021/10/19 05:37:36;;;;;;;22.73;14.40;;;9.80;99.90;;;9.52;93.67;98855.44;5055640;28;20640;-82
2021/10/19 05:40:08;;;;;;;21.60;14.90;;;9.80;99.90;;;9.56;93.70;98863.91;5054500;28;21207;-82
2021/10/19 05:42:46;;;;;;;22.07;13.73;;;9.90;99.90;;;9.58;93.46;98855.09;5046466;28;20651;-82
2021/10/19 05:45:14;;;;;;;18.17;13.10;;;9.90;99.90;;;9.59;94.19;98851.59;5050579;28;20751;-82
2021/10/19 05:47:43;;;;;;;18.60;13.63;;;9.90;99.90;;;9.63;93.76;98849.66;5058927;28;20649;-82
2021/10/19 05:50:14;;;;;;;20.53;13.87;;;9.90;99.90;;;9.64;94.15;98854.78;5058863;28;20624;-81
2021/10/19 05:52:43;;;;;;;18.60;13.67;;;9.90;99.90;;;9.67;94.02;98856.41;5034309;28;20672;-82
2021/10/19 05:55:13;;;;;;;18.33;13.13;;;9.90;99.90;;;9.69;94.04;98851.94;5057047;28;21543;-81
2021/10/19 05:57:45;;;;;;;22.20;15.60;;;10.00;99.90;;;9.72;93.65;98857.81;5052097;28;21202;-82
2021/10/19 06:00:14;;;;;;;18.70;14.70;;;10.00;99.90;;;9.74;93.37;98863.81;5056622;28;20739;-82
2021/10/19 06:02:43;;;;;;;22.40;13.80;;;10.00;99.90;;;9.75;94.06;98867.25;5039973;28;20629;-82
2021/10/19 06:05:12;;;;;;;19.70;13.30;;;10.00;99.90;;;9.77;94.30;98866.22;5054915;28;20649;-82
2021/10/19 06:07:40;;;;;;;18.10;13.00;;;10.10;99.90;;;9.80;94.06;98871.28;5054099;28;20629;-83
2021/10/19 06:10:10;;;;;;;21.30;14.50;;;10.10;99.90;;;9.83;94.50;98873.72;5053908;28;20654;-82
2021/10/19 06:12:40;;;;;;;17.90;13.10;;;10.10;99.90;;;9.85;94.47;98871.91;5054975;28;20734;-82
2021/10/19 06:15:09;;;;;;;17.40;13.17;;;10.10;99.90;;;9.87;94.08;98868.28;5064183;28;20632;-82
2021/10/19 06:17:38;;;;;;;16.57;12.97;;;10.20;99.90;;;9.90;93.92;98860.28;5054706;28;20644;-83
2021/10/19 06:20:08;;;;;;;17.27;13.23;;;10.20;99.90;;;9.92;93.93;98860.22;5050133;28;20638;-83
2021/10/19 06:22:37;;;;;;;16.47;12.77;;;10.20;99.90;;;9.93;94.28;98865.38;5059904;28;20644;-83
2021/10/19 06:25:08;;;;;;;17.90;12.80;;;10.20;99.90;;;9.96;94.01;98880.84;5040606;28;20758;-83
2021/10/19 06:27:36;;;;;;;15.40;12.40;;;10.30;99.90;;;10.01;93.94;98881.47;5049447;28;21017;-81
2021/10/19 06:30:11;;;;;;;16.57;12.77;;;10.30;99.90;;;10.04;94.26;98875.22;5050676;28;20643;-82
2021/10/19 06:32:43;;;;;;;18.50;13.30;;;10.30;99.90;;;10.07;94.51;98880.28;5035926;28;20675;-82
2021/10/19 06:35:11;;;;;;;18.70;13.20;;;10.30;99.90;;;10.09;93.85;98881.88;5048907;28;20624;-82
2021/10/19 06:37:40;;;;;;;16.50;12.90;;;10.40;99.90;;;10.12;93.88;98884.31;5048527;28;20659;-82
2021/10/19 06:40:10;;;;;;;18.47;13.23;;;10.40;99.90;;;10.16;95.11;98875.41;5038743;28;20644;-83
2021/10/19 06:42:38;;;;;;;16.10;12.70;;;10.50;99.90;;;10.18;93.91;98878.78;5047906;28;21244;-82
2021/10/19 06:45:10;;;;;;;23.00;13.63;;;10.40;99.90;;;10.21;94.38;98889.03;5053239;28;20987;-82
2021/10/19 06:47:42;;;;;;;24.93;17.90;;;10.50;99.90;;;10.26;93.82;98892.22;5054915;28;20689;-83
2021/10/19 06:50:11;;;;;;;16.13;12.70;;;10.50;99.90;;;10.32;94.28;98891.06;5050477;28;20655;-82
2021/10/19 06:52:40;;;;;;;17.70;13.00;;;10.60;99.90;;;10.31;94.11;98892.81;5034863;28;20632;-82
2021/10/19 06:55:10;;;;;;;16.83;12.90;;;10.60;99.90;;;10.36;93.64;98898.66;5053327;28;20624;-82
2021/10/19 06:57:42;;;;;;;20.10;13.70;;;10.60;99.90;;;10.37;93.17;98895.94;5052414;28;20674;-83
2021/10/19 07:00:16;;;;;;;21.50;13.70;;;10.60;99.90;;;10.40;93.29;98887.09;5052386;28;20642;-82
2021/10/19 07:02:45;;;;;;;17.97;13.10;;;10.70;99.90;;;10.44;93.33;98886.03;5055203;28;20647;-82
2021/10/19 07:05:14;;;;;;;16.07;12.10;;;10.70;99.90;;;10.46;93.96;98884.16;5050057;28;21195;-82
2021/10/19 07:07:43;;;;;;;19.40;13.97;;;10.70;99.90;;;10.49;93.45;98884.00;5038351;28;20665;-82
2021/10/19 07:10:13;;;;;;;19.60;14.10;;;10.70;99.90;;;10.54;93.20;98892.38;5055156;28;20659;-82
2021/10/19 07:12:44;;;;;;;20.20;13.90;;;10.80;99.90;;;10.58;94.14;98893.91;5049733;28;20639;-82
2021/10/19 07:15:15;;;;;;;16.63;12.40;;;10.80;99.90;;;10.64;95.12;98888.34;5051740;28;20636;-82
2021/10/19 07:17:43;;;;;;;16.77;12.77;;;10.90;99.90;;;10.68;94.51;98890.72;5062816;28;21007;-82
2021/10/19 07:20:15;;;;;;;17.60;13.60;;;10.90;99.90;;;10.71;95.26;98900.97;5056168;28;21180;-83
2021/10/19 07:22:45;;;;;;;17.67;12.97;;;11.00;99.90;;;10.75;94.39;98905.09;5053889;28;20703;-82
2021/10/19 07:25:14;;;;;;;16.60;12.40;;;11.00;99.90;;;10.77;95.19;98895.41;5056516;28;20629;-82
2021/10/19 07:27:44;;;;;;;19.73;13.93;;;11.00;99.90;;;10.81;95.46;98896.94;5045525;28;20674;-82
2021/10/19 07:30:17;;;;;;;18.10;13.00;;;11.10;99.90;;;10.85;94.61;98904.50;5053071;28;20635;-82
2021/10/19 07:32:46;;;;;;;19.63;12.90;;;11.10;99.90;;;10.89;94.70;98903.38;5051148;28;20624;-82
2021/10/19 07:35:16;;;;;;;18.87;13.03;;;11.10;99.90;;;10.94;95.75;98905.72;5051856;28;20648;-82
2021/10/19 07:37:47;;;;;;;18.57;14.07;;;11.20;99.90;;;11.01;96.09;98913.13;5052079;28;20724;-82
2021/10/19 07:40:16;;;;;;;21.57;13.93;;;11.30;99.90;;;11.07;95.92;98920.63;5052646;28;20636;-82
2021/10/19 07:42:47;;;;;;;15.23;13.10;;;11.30;99.90;;;11.12;94.21;98923.78;5055651;28;20628;-82
2021/10/19 07:45:20;;;;;;;16.80;12.83;;;11.40;99.90;;;11.08;93.71;98935.34;5052902;28;20628;-82
2021/10/19 07:47:49;;;;;;;18.17;13.53;;;11.30;99.90;;;11.11;94.68;98932.56;5050993;28;21270;-82
2021/10/19 07:50:23;;;;;;;22.77;15.20;;;11.30;99.90;;;11.15;95.36;98934.06;5055969;28;20637;-81
2021/10/19 07:52:52;;;;;;;21.27;14.10;;;11.40;99.90;;;11.18;94.30;98933.06;5051969;28;20675;-81
2021/10/19 07:55:21;;;;;;;19.07;13.70;;;11.40;99.90;;;11.20;94.45;98925.97;5060543;28;20632;-81
2021/10/19 07:57:52;;;;;;;19.20;14.80;;;11.50;99.90;;;11.25;95.91;98931.78;5048815;28;20636;-81
2021/10/19 08:00:28;;;;;;;18.77;13.80;;;11.50;99.90;;;11.30;95.60;98941.03;5047811;28;20640;-81
2021/10/19 08:02:58;;;;;;;18.50;14.27;;;11.50;99.90;;;11.36;94.80;98948.50;5053085;28;20636;-81
2021/10/19 08:05:28;;;;;;;19.10;13.63;;;11.60;99.90;;;11.40;94.21;98955.25;5053406;28;21212;-81
2021/10/19 08:08:07;;;;;;;19.63;13.57;;;11.60;99.90;;;11.46;96.45;98954.88;5057197;28;21161;-81
2021/10/19 08:10:37;;;;;;;18.50;14.10;;;11.70;99.90;;;11.51;94.61;98948.47;5059255;28;20643;-81
2021/10/19 08:13:06;;;;;;;17.20;13.57;;;11.70;99.90;;;11.56;95.21;98961.28;5054608;28;20667;-81
2021/10/19 08:15:36;;;;;;;17.87;13.63;;;11.80;99.90;;;11.60;94.89;98965.41;5052975;28;20636;-81
2021/10/19 08:18:05;;;;;;;17.70;14.43;;;11.80;99.90;;;11.63;95.73;98971.28;5055262;28;20628;-81
2021/10/19 08:20:37;;;;;;;17.43;14.40;;;11.90;99.90;;;11.69;94.62;98964.88;5062186;28;21223;-81
2021/10/19 08:23:07;;;;;;;19.40;15.47;;;11.90;99.90;;;11.74;95.42;98968.88;5055626;28;20705;-81
2021/10/19 08:25:35;;;;;;;20.83;15.73;;;11.90;99.90;;;11.76;95.61;98953.97;5055331;28;20636;-81
2021/10/19 08:28:05;;;;;;;25.30;20.10;;;12.00;99.90;;;11.82;95.80;98971.91;5058462;28;20755;-81
2021/10/19 08:30:35;;;;;;;26.27;19.27;;;12.00;99.90;;;11.90;95.38;98973.09;5059938;28;20628;-81
2021/10/19 08:33:04;;;;;;;23.83;17.27;;;12.10;99.90;;;11.96;95.93;98946.59;5054370;28;20679;-81
2021/10/19 08:35:33;;;;;;;23.40;16.73;;;12.20;99.90;;;12.00;95.58;98948.09;5053885;28;21022;-81
2021/10/19 08:38:05;;;;;;;19.90;15.87;;;12.20;99.90;;;12.07;96.08;98943.34;5059453;28;20646;-81
2021/10/19 08:40:33;;;;;;;18.20;15.20;;;12.30;99.90;;;12.09;94.82;98947.56;5058771;28;20655;-81
2021/10/19 08:43:03;;;;;;;21.33;14.63;;;12.30;99.90;;;12.13;96.61;98940.34;5054937;28;20639;-81
2021/10/19 08:45:32;;;;;;;22.47;15.30;;;12.30;99.90;;;12.15;95.81;98949.78;5055336;28;20663;-82
2021/10/19 08:48:02;;;;;;;20.57;15.00;;;12.30;99.90;;;12.19;95.83;98942.59;5050978;28;20668;-82
2021/10/19 08:50:31;;;;;;;22.20;15.60;;;12.40;99.90;;;12.25;97.67;98938.69;5055440;28;20636;-82
2021/10/19 08:53:00;;;;;;;21.33;15.83;;;12.40;99.90;;;12.30;96.74;98941.84;5059571;28;20643;-81
2021/10/19 08:55:29;;;;;;;16.57;13.53;;;12.50;99.90;;;12.34;97.27;98929.41;5060912;28;20654;-81
2021/10/19 08:58:02;;;;;;;16.13;12.60;;;12.50;99.90;;;12.38;98.49;98929.13;5041169;28;20640;-81
2021/10/19 09:00:31;;;;;;;14.33;11.73;;;12.60;99.90;;;12.43;99.29;98934.06;5058246;28;21099;-81
2021/10/19 09:03:01;;;;;;;15.60;12.20;;;12.60;99.90;;;12.48;99.02;98932.00;5055900;28;20643;-81
2021/10/19 09:05:33;;;;;;;11.20;9.00;;;12.70;99.90;;;12.56;97.72;98938.44;5057358;28;20640;-81
2021/10/19 09:08:04;;;;;;;14.27;9.50;;;12.70;99.90;;;12.64;98.59;98935.34;5043842;28;20668;-81
2021/10/19 09:10:35;;;;;;;12.70;9.13;;;12.80;99.90;;;12.74;97.90;98948.59;5054591;28;21715;-81
2021/10/19 09:13:06;;;;;;;9.63;8.53;;;12.90;99.90;;;12.82;98.09;98950.72;5044723;28;21134;-82
2021/10/19 09:15:39;;;;;;;12.83;11.23;;;13.00;99.90;;;12.89;99.24;98947.66;5054997;28;20647;-81
2021/10/19 09:18:12;;;;;;;12.90;10.00;;;13.10;99.90;;;12.92;97.40;98951.88;5057696;28;21254;-81
2021/10/19 09:20:43;;;;;;;11.37;10.17;;;13.10;99.90;;;12.93;97.52;98956.16;5059048;28;20667;-81
2021/10/19 09:23:15;;;;;;;10.93;9.33;;;13.10;99.90;;;12.91;95.28;98945.78;5052658;28;20633;-82
2021/10/19 09:25:46;;;;;;;12.63;10.63;;;13.10;99.90;;;12.86;94.58;98940.00;5055108;28;20752;-82
2021/10/19 09:28:17;;;;;;;13.20;11.00;;;13.10;99.90;;;12.87;95.84;98930.34;5049640;28;20762;-81
2021/10/19 09:30:48;;;;;;;11.70;10.50;;;13.10;99.90;;;12.89;95.63;98941.59;5050971;28;21010;-82
2021/10/19 09:33:20;;;;;;;10.70;9.60;;;13.10;99.90;;;12.90;96.04;98943.25;5052071;28;20655;-82
2021/10/19 09:35:55;;;;;;;13.33;9.77;;;13.10;99.90;;;12.93;95.75;98943.91;5056609;28;20648;-82
2021/10/19 09:38:24;;;;;;;11.40;9.50;;;13.20;99.90;;;12.98;96.54;98949.69;5047362;28;20705;-81
2021/10/19 09:40:56;;;;;;;11.30;9.80;;;13.20;99.90;;;13.05;96.49;98953.59;5049599;28;20728;-81
2021/10/19 09:43:27;;;;;;;9.93;8.37;;;13.20;99.90;;;13.12;96.21;98946.19;5057829;28;21270;-81
2021/10/19 09:46:03;;;;;;;9.43;8.53;;;13.30;99.90;;;13.19;96.38;98941.28;5050125;28;20624;-81
2021/10/19 09:48:35;;;;;;;10.20;8.80;;;13.40;99.90;;;13.26;96.86;98949.56;5055743;28;21074;-82
2021/10/19 09:51:05;;;;;;;8.90;7.83;;;13.40;99.90;;;13.28;95.62;98955.56;5070334;28;20667;-82
2021/10/19 09:53:36;;;;;;;10.50;7.80;;;13.50;99.90;;;13.34;95.20;98963.03;5050394;28;20706;-82
2021/10/19 09:56:08;;;;;;;9.00;7.63;;;13.50;99.90;;;13.45;95.56;98955.28;5053459;28;20639;-82
2021/10/19 09:58:37;;;;;;;9.63;7.07;;;13.60;99.90;;;13.57;95.03;98946.63;5057398;28;20668;-82
2021/10/19 10:01:10;;;;;;;10.67;5.93;;;13.70;99.90;;;13.67;94.68;98941.50;5032453;28;20636;-82
2021/10/19 10:03:44;;;;;;;7.17;5.97;;;13.80;99.90;;;13.75;93.82;98939.19;5049036;28;20690;-82
2021/10/19 10:06:15;;;;;;;7.30;6.23;;;13.90;99.90;;;13.86;93.35;98933.22;5055677;28;21126;-81
2021/10/19 10:08:45;;;;;;;9.80;6.57;;;14.00;99.90;;;13.93;93.42;98929.25;5054306;28;20704;-81
2021/10/19 10:11:16;;;;;;;8.77;7.30;;;14.00;99.90;;;14.01;93.91;98938.28;5034466;28;20611;-81
2021/10/19 10:13:56;;;;;;;6.63;5.93;;;14.10;99.90;;;14.10;92.66;98937.66;5053736;28;20691;-81
2021/10/19 10:16:25;;;;;;;8.17;6.03;;;14.20;99.90;;;14.19;92.76;98935.25;5054853;28;20636;-82
2021/10/19 10:18:56;;;;;;;7.57;5.90;;;14.30;99.90;;;14.24;91.89;98934.94;5058166;28;20640;-82
2021/10/19 10:21:27;;;;;;;6.10;5.07;;;14.40;99.90;;;14.28;91.50;98937.25;5041945;28;20651;-82
2021/10/19 10:24:02;;;;;;;5.97;5.07;;;14.40;99.90;;;14.37;91.90;98927.88;5052165;28;20633;-82
2021/10/19 10:26:33;;;;;;;5.63;4.63;;;14.50;99.90;;;14.47;91.91;98921.06;5052189;28;20615;-82